Time;durP1;ratioP1;P1;durP2;ratioP2;P2;SDS_P1;SDS_P2;PMS_P1;PMS_P2;Temp;Humidity;BMP_temperature;BMP_pressure;BME280_temperature;BME280_humidity;BME280_pressure;Samples;Min_cycle;Max_cycle;Signal;HPM_P1;HPM_P2
2023/01/11 00:00:06;;;;;;;9.30;2.60;;;5.20;99.90;;;;;;4993122;28;20244;-77
2023/01/11 00:02:33;;;;;;;5.23;2.23;;;5.10;99.90;;;;;;4996998;28;20210;-77
2023/01/11 00:04:59;;;;;;;8.57;2.40;;;5.20;99.90;;;;;;4996665;28;20263;-77
2023/01/11 00:07:24;;;;;;;8.03;2.60;;;5.20;99.90;;;;;;4996846;28;20294;-77
2023/01/11 00:09:50;;;;;;;6.67;2.30;;;5.20;99.90;;;;;;4996742;28;20194;-77
2023/01/11 00:12:15;;;;;;;4.17;2.20;;;5.20;99.90;;;;;;4996661;28;20278;-77
2023/01/11 00:14:41;;;;;;;6.47;2.43;;;5.20;99.90;;;;;;4996488;28;20184;-77
2023/01/11 00:17:07;;;;;;;7.70;2.03;;;5.20;99.90;;;;;;4996685;28;20216;-77
2023/01/11 00:19:32;;;;;;;5.93;2.40;;;5.30;99.90;;;;;;4997748;28;20287;-77
2023/01/11 00:21:58;;;;;;;5.03;2.20;;;5.30;99.90;;;;;;4996334;28;20272;-77
2023/01/11 00:24:23;;;;;;;6.80;2.53;;;5.30;99.90;;;;;;4996429;28;20178;-77
2023/01/11 00:26:49;;;;;;;4.43;2.23;;;5.20;99.90;;;;;;4997786;28;20227;-77
2023/01/11 00:29:15;;;;;;;4.90;2.40;;;5.20;99.90;;;;;;4996320;28;20553;-77
2023/01/11 00:31:40;;;;;;;6.23;2.30;;;5.20;99.90;;;;;;4997728;28;20657;-77
2023/01/11 00:34:06;;;;;;;4.83;2.33;;;5.20;99.90;;;;;;4997422;28;20191;-77
2023/01/11 00:36:31;;;;;;;6.47;2.20;;;5.20;99.90;;;;;;4996399;28;20188;-77
2023/01/11 00:38:57;;;;;;;7.33;2.23;;;5.20;99.90;;;;;;4996769;28;20671;-77
2023/01/11 00:49:48;;;;;;;5.90;2.97;;;5.10;99.90;;;;;;4997428;28;20624;-77
2023/01/11 00:52:14;;;;;;;6.37;2.80;;;5.20;99.90;;;;;;4995705;28;20180;-77
2023/01/11 00:54:41;;;;;;;7.97;2.40;;;5.20;99.90;;;;;;4997175;28;20187;-77
2023/01/11 00:57:07;;;;;;;7.80;2.80;;;5.20;99.90;;;;;;4995921;28;20204;-77
2023/01/11 00:59:33;;;;;;;5.13;2.43;;;5.20;99.90;;;;;;4995601;28;20238;-77
2023/01/11 01:01:59;;;;;;;4.53;2.50;;;5.20;99.90;;;;;;4996925;28;20176;-77
2023/01/11 01:04:25;;;;;;;8.47;3.13;;;5.20;99.90;;;;;;4995657;28;20207;-77
2023/01/11 01:06:50;;;;;;;5.07;2.40;;;5.10;99.90;;;;;;4996698;28;20260;-77
2023/01/11 01:09:16;;;;;;;8.03;2.10;;;5.10;99.90;;;;;;4995823;28;20179;-77
2023/01/11 01:11:41;;;;;;;8.07;2.70;;;5.10;99.90;;;;;;4995255;28;20198;-77
2023/01/11 01:14:28;;;;;;;9.23;2.67;;;5.00;99.90;;;;;;4994769;28;20211;-77
2023/01/11 01:17:00;;;;;;;6.87;2.37;;;5.10;99.90;;;;;;4996069;28;20187;-76
2023/01/11 01:19:27;;;;;;;10.67;2.63;;;5.10;99.90;;;;;;4996356;28;20254;-77
2023/01/11 01:21:55;;;;;;;6.37;2.17;;;5.10;99.90;;;;;;4996497;28;20176;-77
2023/01/11 01:24:21;;;;;;;6.23;2.63;;;5.00;99.90;;;;;;4995264;28;20327;-77
2023/01/11 01:26:47;;;;;;;6.50;2.63;;;5.10;99.90;;;;;;4995121;28;20184;-76
2023/01/11 01:29:13;;;;;;;6.23;2.47;;;5.10;99.90;;;;;;4996345;28;20181;-76
2023/01/11 01:31:39;;;;;;;8.03;2.33;;;5.10;99.90;;;;;;4996597;28;20272;-76
2023/01/11 01:34:05;;;;;;;5.67;2.70;;;5.10;99.90;;;;;;4995866;28;20195;-76
2023/01/11 01:36:31;;;;;;;7.13;2.57;;;5.10;99.90;;;;;;4996110;28;20183;-76
2023/01/11 01:38:59;;;;;;;9.53;2.43;;;5.10;99.90;;;;;;4995169;28;20203;-76
2023/01/11 01:41:25;;;;;;;5.40;2.40;;;5.20;99.90;;;;;;4995217;28;20183;-76
2023/01/11 01:43:53;;;;;;;5.17;2.47;;;5.20;99.90;;;;;;4994910;28;20279;-76
2023/01/11 01:46:21;;;;;;;13.30;3.10;;;5.10;99.90;;;;;;4994786;28;20219;-77
2023/01/11 01:49:08;;;;;;;5.93;2.33;;;5.20;99.90;;;;;;4994587;28;20208;-77
2023/01/11 01:52:06;;;;;;;6.70;2.40;;;5.20;99.90;;;;;;4995285;28;20188;-77
2023/01/11 01:54:38;;;;;;;7.50;2.23;;;5.20;99.90;;;;;;4995422;28;20566;-77
2023/01/11 01:57:09;;;;;;;7.97;2.90;;;5.20;99.90;;;;;;4995839;28;20220;-77
2023/01/11 01:59:35;;;;;;;6.53;2.30;;;5.20;99.90;;;;;;4996554;28;20196;-77
2023/01/11 02:02:00;;;;;;;8.00;2.53;;;5.20;99.90;;;;;;4995817;28;20177;-77
2023/01/11 02:04:43;;;;;;;7.60;2.60;;;5.20;99.90;;;;;;4994521;28;20242;-77
2023/01/11 02:07:19;;;;;;;5.77;2.30;;;5.20;99.90;;;;;;4994632;28;20211;-76
2023/01/11 02:09:55;;;;;;;5.93;2.40;;;5.20;99.90;;;;;;4996139;28;20507;-77
2023/01/11 02:12:23;;;;;;;4.50;2.27;;;5.20;99.90;;;;;;4994317;28;20198;-77
2023/01/11 02:14:50;;;;;;;8.27;2.67;;;5.20;99.90;;;;;;4994206;28;20271;-77
2023/01/11 02:17:15;;;;;;;5.57;2.50;;;5.20;99.90;;;;;;4994057;28;20275;-76
2023/01/11 02:20:11;;;;;;;6.47;2.63;;;5.30;99.90;;;;;;4994470;28;20224;-77
2023/01/11 02:22:52;;;;;;;7.73;2.80;;;5.30;99.90;;;;;;4994738;28;20176;-77
2023/01/11 02:25:23;;;;;;;5.03;2.47;;;5.20;99.90;;;;;;4994314;28;20227;-77
2023/01/11 02:27:57;;;;;;;5.57;2.13;;;5.30;99.90;;;;;;4994044;28;20200;-77
2023/01/11 02:30:41;;;;;;;5.43;2.30;;;5.20;99.90;;;;;;4994002;28;20176;-77
2023/01/11 02:33:15;;;;;;;7.17;2.47;;;5.30;99.90;;;;;;4993898;28;20215;-77
2023/01/11 02:35:48;;;;;;;5.93;2.50;;;5.20;99.90;;;;;;4993929;28;20172;-77
2023/01/11 02:38:43;;;;;;;6.00;2.60;;;5.20;99.90;;;;;;4994889;28;20200;-77
2023/01/11 02:41:11;;;;;;;7.13;2.73;;;5.20;99.90;;;;;;4992326;28;20189;-77
2023/01/11 02:46:50;;;;;;;4.83;2.23;;;5.20;99.90;;;;;;4995223;28;20179;-77
2023/01/11 02:49:28;;;;;;;6.40;2.33;;;5.20;99.90;;;;;;4992442;28;20196;-77
2023/01/11 02:51:57;;;;;;;6.40;2.53;;;5.30;99.90;;;;;;4993505;28;20183;-77
2023/01/11 02:54:23;;;;;;;3.40;2.30;;;5.20;99.90;;;;;;4993526;28;20179;-77
2023/01/11 02:56:53;;;;;;;7.00;2.40;;;5.30;99.90;;;;;;4994623;28;20202;-77
2023/01/11 02:59:22;;;;;;;8.03;2.77;;;5.20;99.90;;;;;;4993682;28;20207;-77
2023/01/11 03:01:54;;;;;;;5.83;2.40;;;5.20;99.90;;;;;;4994961;28;20183;-77
2023/01/11 03:04:30;;;;;;;5.43;2.43;;;5.30;99.90;;;;;;4993304;28;20311;-77
2023/01/11 03:07:28;;;;;;;5.55;2.60;;;5.30;99.90;;;;;;4993569;28;20270;-77
2023/01/11 03:10:08;;;;;;;8.77;2.80;;;5.30;99.90;;;;;;4991247;28;20291;-77
2023/01/11 03:12:54;;;;;;;7.43;2.70;;;5.30;99.90;;;;;;4995053;28;20207;-77
2023/01/11 03:15:30;;;;;;;6.13;2.70;;;5.30;99.90;;;;;;4994363;28;20180;-77
2023/01/11 03:17:56;;;;;;;6.17;3.00;;;5.30;99.90;;;;;;4994207;28;20746;-77
2023/01/11 03:20:29;;;;;;;4.80;2.73;;;5.30;99.90;;;;;;4993622;28;20263;-77
2023/01/11 03:23:11;;;;;;;6.70;2.80;;;5.30;99.90;;;;;;4994006;28;20176;-77
2023/01/11 03:25:56;;;;;;;4.63;2.43;;;5.20;99.90;;;;;;4993941;28;20172;-77
2023/01/11 03:28:34;;;;;;;7.47;2.97;;;5.30;99.90;;;;;;4993013;28;20192;-77
2023/01/11 03:31:45;;;;;;;9.03;2.90;;;5.20;99.90;;;;;;4995142;28;20196;-77
2023/01/11 03:34:18;;;;;;;7.07;2.93;;;5.20;99.90;;;;;;4992971;28;20176;-77
2023/01/11 03:36:53;;;;;;;5.37;2.70;;;5.20;99.90;;;;;;4992481;28;20223;-76
2023/01/11 03:39:40;;;;;;;6.70;3.10;;;5.20;99.90;;;;;;4994166;28;20188;-77
2023/01/11 03:42:08;;;;;;;4.83;2.83;;;5.10;99.90;;;;;;4992934;28;20238;-77
2023/01/11 03:44:41;;;;;;;5.83;2.70;;;5.20;99.90;;;;;;4992810;28;20662;-77
2023/01/11 03:47:10;;;;;;;5.17;2.50;;;5.20;99.90;;;;;;4993779;28;20196;-77
2023/01/11 03:49:48;;;;;;;6.93;2.90;;;5.20;99.90;;;;;;4992803;28;20192;-77
2023/01/11 03:52:16;;;;;;;7.77;2.90;;;5.30;99.90;;;;;;4992799;28;20180;-77
2023/01/11 03:54:44;;;;;;;5.70;3.30;;;5.20;99.90;;;;;;4993987;28;20267;-77
2023/01/11 03:57:22;;;;;;;5.07;2.97;;;5.30;99.90;;;;;;4993609;28;20200;-77
2023/01/11 03:59:49;;;;;;;6.20;3.33;;;5.20;99.90;;;;;;4992691;28;20199;-77
2023/01/11 04:02:17;;;;;;;6.63;2.80;;;5.20;99.90;;;;;;4992959;28;20279;-77
2023/01/11 04:04:43;;;;;;;10.17;3.40;;;5.30;99.90;;;;;;4993833;28;20168;-77
2023/01/11 04:07:08;;;;;;;6.20;2.90;;;5.30;99.90;;;;;;4993781;28;20192;-77
2023/01/11 04:09:34;;;;;;;3.53;2.80;;;5.30;99.90;;;;;;4992611;28;20535;-77
2023/01/11 04:11:59;;;;;;;6.60;2.90;;;5.30;99.90;;;;;;4992942;28;20655;-77
2023/01/11 04:14:25;;;;;;;4.07;3.27;;;5.30;99.90;;;;;;4992853;28;20205;-77
2023/01/11 04:16:50;;;;;;;6.97;3.10;;;5.20;99.90;;;;;;4992535;28;20184;-77
2023/01/11 04:19:16;;;;;;;6.23;3.37;;;5.30;99.90;;;;;;4992796;28;20215;-77
2023/01/11 04:21:41;;;;;;;6.67;3.00;;;5.30;99.90;;;;;;4993328;28;20271;-77
2023/01/11 04:24:07;;;;;;;6.97;3.23;;;5.20;99.90;;;;;;4992854;28;20243;-77
2023/01/11 04:26:33;;;;;;;4.40;2.83;;;5.20;99.90;;;;;;4992778;28;20180;-77
2023/01/11 04:28:58;;;;;;;7.40;3.30;;;5.20;99.90;;;;;;4993604;28;20206;-77
2023/01/11 04:31:24;;;;;;;5.50;3.17;;;5.20;99.90;;;;;;4992471;28;20191;-77
2023/01/11 04:33:49;;;;;;;6.57;3.20;;;5.20;99.90;;;;;;4993533;28;20180;-77
2023/01/11 04:36:15;;;;;;;10.07;3.00;;;5.20;99.90;;;;;;4992796;28;20654;-77
2023/01/11 04:38:41;;;;;;;7.47;3.40;;;5.20;99.90;;;;;;4992630;28;20266;-77
2023/01/11 04:43:55;;;;;;;6.20;3.10;;;5.20;99.90;;;;;;4994131;28;20234;-77
2023/01/11 04:46:21;;;;;;;7.53;3.20;;;5.30;99.90;;;;;;4992722;28;20227;-77
2023/01/11 04:48:47;;;;;;;7.40;4.90;;;5.30;99.90;;;;;;4994766;28;20215;-77
2023/01/11 04:51:12;;;;;;;15.00;11.60;;;5.30;99.90;;;;;;4997326;28;20180;-77
2023/01/11 04:53:38;;;;;;;23.07;16.30;;;5.30;99.90;;;;;;4996374;28;20276;-77
2023/01/11 04:56:05;;;;;;;10.53;7.40;;;5.30;99.90;;;;;;4997040;28;20302;-77
2023/01/11 04:58:33;;;;;;;18.33;13.20;;;5.30;99.90;;;;;;4995406;28;20204;-77
2023/01/11 05:00:58;;;;;;;11.93;8.07;;;5.20;99.90;;;;;;4996187;28;20176;-77
2023/01/11 05:03:24;;;;;;;9.27;6.07;;;5.30;99.90;;;;;;4995615;28;20172;-77
2023/01/11 05:05:55;;;;;;;7.33;4.50;;;5.40;99.90;;;;;;4996745;28;20169;-77
2023/01/11 05:08:20;;;;;;;6.03;4.27;;;5.30;99.90;;;;;;4996209;28;20204;-77
2023/01/11 05:10:51;;;;;;;5.30;3.40;;;5.40;99.90;;;;;;4995566;28;20272;-77
2023/01/11 05:13:17;;;;;;;3.93;3.20;;;5.40;99.90;;;;;;4995477;28;20628;-77
2023/01/11 05:15:42;;;;;;;7.23;6.20;;;5.40;99.90;;;;;;4995663;28;20207;-77
2023/01/11 05:18:08;;;;;;;6.30;5.40;;;5.40;99.90;;;;;;4996408;28;20196;-77
2023/01/11 05:20:33;;;;;;;7.43;4.37;;;5.40;99.90;;;;;;4995302;28;20234;-77
2023/01/11 05:22:59;;;;;;;5.20;3.50;;;5.40;99.90;;;;;;4996482;28;20177;-77
2023/01/11 05:25:24;;;;;;;4.20;3.17;;;5.40;99.90;;;;;;4995364;28;20187;-78
2023/01/11 05:27:50;;;;;;;8.40;6.03;;;5.50;99.90;;;;;;4995165;28;20204;-77
2023/01/11 05:30:16;;;;;;;9.90;6.83;;;5.40;99.90;;;;;;4995189;28;20239;-77
2023/01/11 05:32:59;;;;;;;4.97;4.30;;;5.50;99.90;;;;;;4995037;28;20196;-78
2023/01/11 05:35:24;;;;;;;8.50;3.93;;;5.50;99.90;;;;;;4995144;28;20176;-77
2023/01/11 05:37:50;;;;;;;11.10;6.38;;;5.60;99.90;;;;;;4997395;28;20570;-77
2023/01/11 05:40:16;;;;;;;8.10;6.18;;;5.70;99.90;;;;;;4996619;28;20617;-77
2023/01/11 05:42:41;;;;;;;9.90;4.60;;;5.60;99.90;;;;;;4995688;28;20188;-77
2023/01/11 05:47:52;;;;;;;4.45;2.88;;;5.60;99.90;;;;;;4996800;28;20717;-77
2023/01/11 05:50:18;;;;;;;6.38;3.10;;;5.60;99.90;;;;;;4995639;28;20196;-79
2023/01/11 05:52:43;;;;;;;9.47;4.53;;;5.60;99.90;;;;;;4994686;28;20180;-77
2023/01/11 05:55:09;;;;;;;5.43;3.93;;;5.60;99.90;;;;;;4995049;28;20219;-78
2023/01/11 05:57:40;;;;;;;5.87;3.60;;;5.60;99.90;;;;;;4994597;28;20211;-77
2023/01/11 06:00:06;;;;;;;6.57;3.60;;;5.60;99.90;;;;;;4995639;28;20218;-77
2023/01/11 06:02:33;;;;;;;5.20;3.33;;;5.60;99.90;;;;;;4994485;28;20244;-78
2023/01/11 06:04:59;;;;;;;5.37;3.63;;;5.60;99.90;;;;;;4994377;28;20172;-78
2023/01/11 06:08:17;;;;;;;6.30;3.40;;;5.70;99.90;;;;;;4994772;28;20698;-77
2023/01/11 06:10:49;;;;;;;6.80;3.00;;;5.60;99.90;;;;;;4994680;28;20616;-77
2023/01/11 06:13:26;;;;;;;7.27;2.87;;;5.70;99.90;;;;;;4994558;28;20165;-78
2023/01/11 06:16:04;;;;;;;4.23;2.73;;;5.60;99.90;;;;;;4994592;28;20677;-78
2023/01/11 06:18:33;;;;;;;4.47;3.03;;;5.60;99.90;;;;;;4994387;28;20208;-78
2023/01/11 06:21:00;;;;;;;4.43;2.80;;;5.70;99.90;;;;;;4994274;28;20183;-78
2023/01/11 06:23:26;;;;;;;4.67;3.20;;;5.70;99.90;;;;;;4995381;28;20246;-78
2023/01/11 06:25:52;;;;;;;5.30;2.67;;;5.70;99.90;;;;;;4994491;28;20187;-78
2023/01/11 06:28:19;;;;;;;4.25;2.90;;;5.70;99.90;;;;;;4993958;28;20204;-77
2023/01/11 06:30:54;;;;;;;3.67;2.60;;;5.70;99.90;;;;;;4994526;28;20176;-77
2023/01/11 06:33:21;;;;;;;3.85;2.65;;;5.70;99.90;;;;;;4993996;28;20262;-77
2023/01/11 06:35:46;;;;;;;5.40;3.08;;;5.70;99.90;;;;;;4995094;28;20176;-77
2023/01/11 06:38:14;;;;;;;4.88;3.08;;;5.70;99.90;;;;;;4993908;28;20202;-77
2023/01/11 06:40:40;;;;;;;7.75;3.35;;;5.80;99.90;;;;;;4993684;28;20204;-77
2023/01/11 06:43:07;;;;;;;3.20;2.90;;;5.80;99.90;;;;;;4995000;28;20172;-77
2023/01/11 06:45:32;;;;;;;5.63;3.20;;;5.80;99.90;;;;;;4993766;28;20180;-77
2023/01/11 06:48:37;;;;;;;5.00;3.22;;;5.80;99.90;;;;;;4993763;28;20195;-78
2023/01/11 06:51:16;;;;;;;6.18;2.70;;;5.90;99.90;;;;;;4993684;28;20187;-78
2023/01/11 06:53:55;;;;;;;6.30;3.20;;;5.90;99.90;;;;;;4993622;28;20191;-77
2023/01/11 06:56:22;;;;;;;4.82;3.00;;;6.00;99.90;;;;;;4993745;28;20259;-77
2023/01/11 06:58:47;;;;;;;5.68;2.83;;;6.00;99.90;;;;;;4993292;28;20295;-78
2023/01/11 07:01:13;;;;;;;4.43;2.88;;;6.10;99.90;;;;;;4993508;28;20254;-78
2023/01/11 07:03:40;;;;;;;4.05;2.80;;;6.10;99.90;;;;;;4993700;28;20179;-78
2023/01/11 07:06:06;;;;;;;4.35;2.70;;;6.20;99.90;;;;;;4993452;28;20164;-77
2023/01/11 07:08:31;;;;;;;5.03;2.70;;;6.20;99.90;;;;;;4993452;28;20211;-77
2023/01/11 07:10:57;;;;;;;4.05;2.95;;;6.10;99.90;;;;;;4992811;28;20188;-77
2023/01/11 07:13:22;;;;;;;4.97;3.33;;;6.10;99.90;;;;;;4993348;28;20187;-77
2023/01/11 07:15:49;;;;;;;4.22;2.60;;;6.10;99.90;;;;;;4993657;28;20173;-77
2023/01/11 07:18:16;;;;;;;5.80;3.30;;;6.10;99.90;;;;;;4994508;28;20225;-77
2023/01/11 07:20:45;;;;;;;4.63;3.00;;;6.10;99.90;;;;;;4993115;28;20191;-77
2023/01/11 07:23:11;;;;;;;4.20;2.78;;;6.10;99.90;;;;;;4993738;28;20259;-78
2023/01/11 07:25:37;;;;;;;5.85;2.90;;;6.10;99.90;;;;;;4993416;28;20267;-78
2023/01/11 07:28:05;;;;;;;3.30;2.92;;;6.20;99.90;;;;;;4994399;28;20227;-78
2023/01/11 07:30:57;;;;;;;4.13;2.97;;;6.20;99.90;;;;;;4993428;28;20298;-78
2023/01/11 07:33:23;;;;;;;6.30;3.53;;;6.20;99.90;;;;;;4993165;28;20551;-77
2023/01/11 07:35:49;;;;;;;4.07;2.92;;;6.20;99.90;;;;;;4993054;28;20680;-78
2023/01/11 07:38:15;;;;;;;3.08;2.60;;;6.30;99.90;;;;;;4993320;28;20283;-78
2023/01/11 07:40:40;;;;;;;3.97;2.40;;;6.30;99.90;;;;;;4994349;28;20179;-78
2023/01/11 07:43:10;;;;;;;3.97;2.47;;;6.30;99.90;;;;;;4994330;28;20227;-78
2023/01/11 07:45:37;;;;;;;3.08;2.80;;;6.40;99.90;;;;;;4993159;28;20529;-78
2023/01/11 07:48:05;;;;;;;3.42;2.67;;;6.40;99.90;;;;;;4994714;28;20196;-77
2023/01/11 07:50:31;;;;;;;4.55;2.55;;;6.40;99.90;;;;;;4993151;28;20207;-77
2023/01/11 07:52:57;;;;;;;4.72;2.90;;;6.40;99.90;;;;;;4993033;28;20247;-77
2023/01/11 07:55:22;;;;;;;3.30;3.00;;;6.40;99.90;;;;;;4993657;28;20239;-77
2023/01/11 07:57:48;;;;;;;3.60;3.30;;;6.30;99.90;;;;;;4994111;28;20250;-77
2023/01/11 08:00:14;;;;;;;7.28;2.97;;;6.30;99.90;;;;;;4993504;28;20218;-77
2023/01/11 08:02:40;;;;;;;3.83;3.08;;;6.30;99.90;;;;;;4993333;28;20288;-77
2023/01/11 08:05:06;;;;;;;2.92;2.70;;;6.40;99.90;;;;;;4993219;28;20204;-77
2023/01/11 08:07:31;;;;;;;4.78;2.80;;;6.40;99.90;;;;;;4993693;28;20671;-77
2023/01/11 08:09:57;;;;;;;3.63;3.10;;;6.50;99.90;;;;;;4994863;28;20186;-78
2023/01/11 08:15:09;;;;;;;3.13;2.83;;;6.50;99.90;;;;;;4994783;28;20256;-78
2023/01/11 08:17:36;;;;;;;3.30;2.92;;;6.50;99.90;;;;;;4994430;28;20196;-77
2023/01/11 08:20:01;;;;;;;2.95;2.70;;;6.50;99.90;;;;;;4993660;28;20214;-77
2023/01/11 08:22:27;;;;;;;3.03;2.70;;;6.60;99.90;;;;;;4995339;28;20181;-77
2023/01/11 08:24:52;;;;;;;2.88;2.58;;;6.60;99.90;;;;;;4997449;28;20180;-77
2023/01/11 08:27:18;;;;;;;3.30;3.00;;;6.70;99.90;;;;;;4998788;28;20274;-77
2023/01/11 08:29:44;;;;;;;3.05;2.50;;;6.70;99.90;;;;;;4998103;28;20188;-77
2023/01/11 08:32:11;;;;;;;3.90;3.60;;;6.70;99.90;;;;;;4997245;28;20184;-77
2023/01/11 08:34:36;;;;;;;4.07;3.20;;;6.80;99.90;;;;;;4997629;28;20177;-78
2023/01/11 08:37:02;;;;;;;4.63;3.17;;;6.70;99.90;;;;;;4996412;28;20203;-78
2023/01/11 08:39:29;;;;;;;4.70;3.10;;;6.80;99.90;;;;;;4998211;28;20208;-78
2023/01/11 08:41:56;;;;;;;3.80;3.50;;;6.80;99.90;;;;;;4997007;28;20180;-78
2023/01/11 08:44:22;;;;;;;3.70;3.40;;;6.80;99.90;;;;;;4996913;28;20180;-78
2023/01/11 08:46:48;;;;;;;6.82;6.03;;;6.90;99.90;;;;;;4996797;28;20176;-77
2023/01/11 08:49:13;;;;;;;5.43;4.90;;;6.80;99.90;;;;;;4996932;28;20643;-78
2023/01/11 08:51:40;;;;;;;7.45;6.75;;;6.90;99.90;;;;;;4998183;28;20172;-78
2023/01/11 08:54:09;;;;;;;5.93;5.45;;;6.90;99.90;;;;;;4998282;28;20172;-78
2023/01/11 08:56:35;;;;;;;5.10;4.60;;;6.90;99.90;;;;;;4997442;28;20339;-78
2023/01/11 08:59:03;;;;;;;5.40;4.95;;;7.00;99.90;;;;;;4996579;28;20263;-78
2023/01/11 09:01:28;;;;;;;5.63;4.65;;;7.00;99.90;;;;;;4996532;28;20264;-78
2023/01/11 09:03:54;;;;;;;5.22;4.82;;;7.00;99.90;;;;;;4997862;28;20199;-78
2023/01/11 09:06:21;;;;;;;4.72;3.85;;;7.00;99.90;;;;;;4997149;28;20263;-78
2023/01/11 09:08:47;;;;;;;3.80;3.00;;;7.00;99.90;;;;;;4996380;28;20220;-78
2023/01/11 09:13:56;;;;;;;3.60;3.22;;;7.00;99.90;;;;;;4997916;28;20199;-79
2023/01/11 09:16:22;;;;;;;3.42;3.20;;;7.00;99.90;;;;;;4996084;28;20188;-79
2023/01/11 09:18:48;;;;;;;4.85;3.20;;;7.00;99.90;;;;;;4995819;28;20254;-78
2023/01/11 09:21:16;;;;;;;3.17;2.88;;;7.00;99.90;;;;;;4997230;28;20657;-78
2023/01/11 09:23:43;;;;;;;3.60;2.90;;;7.00;99.90;;;;;;4997121;28;20200;-78
2023/01/11 09:26:13;;;;;;;4.93;4.45;;;7.00;99.90;;;;;;4996385;28;20219;-79
2023/01/11 09:28:38;;;;;;;5.07;3.60;;;7.00;99.90;;;;;;4996220;28;20211;-79
2023/01/11 09:31:04;;;;;;;2.85;2.65;;;7.00;99.90;;;;;;4996667;28;20185;-79
2023/01/11 09:33:30;;;;;;;2.95;2.75;;;7.10;99.90;;;;;;4995704;28;20643;-79
2023/01/11 09:35:59;;;;;;;3.85;2.53;;;7.00;99.90;;;;;;4995961;28;20231;-78
2023/01/11 09:38:28;;;;;;;4.10;2.70;;;7.10;99.90;;;;;;4995672;28;20292;-78
2023/01/11 09:41:28;;;;;;;3.03;2.72;;;7.10;99.90;;;;;;4995629;28;20184;-78
2023/01/11 09:44:05;;;;;;;3.00;2.50;;;7.20;99.90;;;;;;4995655;28;20271;-77
2023/01/11 09:46:37;;;;;;;3.05;2.50;;;7.10;99.90;;;;;;4996249;28;20237;-77
2023/01/11 09:49:06;;;;;;;2.90;2.55;;;7.10;99.90;;;;;;4996855;28;20957;-77
2023/01/11 09:51:38;;;;;;;3.05;2.72;;;7.20;99.90;;;;;;4995399;28;20181;-77
2023/01/11 09:54:08;;;;;;;3.55;2.67;;;7.30;99.90;;;;;;4995636;28;20180;-78
2023/01/11 09:56:45;;;;;;;2.78;2.55;;;7.30;99.90;;;;;;4996968;28;20199;-77
2023/01/11 09:59:43;;;;;;;3.05;2.75;;;7.30;99.90;;;;;;4995240;28;20207;-77
2023/01/11 10:02:22;;;;;;;3.50;2.60;;;7.30;99.90;;;;;;4995853;28;20208;-77
2023/01/11 10:05:10;;;;;;;2.70;2.50;;;7.30;99.90;;;;;;4996237;28;20179;-77
2023/01/11 10:07:48;;;;;;;5.68;3.40;;;7.30;99.90;;;;;;4995123;28;20196;-77
2023/01/11 10:10:35;;;;;;;4.03;3.60;;;7.30;99.90;;;;;;4995838;28;20172;-77
2023/01/11 10:13:08;;;;;;;3.75;3.45;;;7.30;99.90;;;;;;4994709;28;20172;-77
2023/01/11 10:16:08;;;;;;;4.93;4.50;;;7.40;99.90;;;;;;4995001;28;20671;-77
2023/01/11 10:19:04;;;;;;;4.25;3.85;;;7.40;99.90;;;;;;4995618;28;20220;-77
2023/01/11 10:21:53;;;;;;;4.10;3.80;;;7.50;99.90;;;;;;4994903;28;20172;-77
2023/01/11 10:24:41;;;;;;;6.13;4.65;;;7.40;99.90;;;;;;4995737;28;20590;-77
2023/01/11 10:27:37;;;;;;;4.30;3.90;;;7.40;99.90;;;;;;4995993;28;20275;-77
2023/01/11 10:33:21;;;;;;;3.63;3.17;;;7.50;99.90;;;;;;4996433;28;20251;-77
2023/01/11 10:36:20;;;;;;;6.65;5.00;;;7.60;99.90;;;;;;4994665;28;20205;-77
2023/01/11 10:39:45;;;;;;;17.67;12.63;;;7.60;99.90;;;;;;4995560;28;20299;-77
2023/01/11 10:42:24;;;;;;;18.65;12.98;;;7.60;99.90;;;;;;4995812;28;20165;-77
2023/01/11 10:44:56;;;;;;;8.00;7.20;;;7.60;99.90;;;;;;4994558;28;20168;-78
2023/01/11 10:47:27;;;;;;;5.47;4.32;;;7.60;99.90;;;;;;4993635;28;20200;-77
2023/01/11 10:50:15;;;;;;;6.43;5.82;;;7.60;99.90;;;;;;4994433;28;20246;-76
2023/01/11 10:52:53;;;;;;;8.35;7.18;;;7.70;99.90;;;;;;4993661;28;20172;-75
2023/01/11 10:55:43;;;;;;;8.05;7.25;;;7.70;99.90;;;;;;4994854;28;20156;-75
2023/01/11 10:58:25;;;;;;;5.50;5.00;;;7.70;99.90;;;;;;4993479;28;20196;-76
2023/01/11 11:01:17;;;;;;;6.10;5.50;;;7.70;99.90;;;;;;4993575;28;20231;-76
2023/01/11 11:04:00;;;;;;;5.60;4.80;;;7.70;99.90;;;;;;4993459;28;20179;-76
2023/01/11 11:06:48;;;;;;;8.85;5.45;;;7.80;99.90;;;;;;4993501;28;20180;-76
2023/01/11 11:09:57;;;;;;;6.25;5.20;;;7.80;99.90;;;;;;4993426;28;20184;-76
2023/01/11 11:13:00;;;;;;;5.75;4.80;;;7.80;99.90;;;;;;4993366;28;20191;-76
2023/01/11 11:16:00;;;;;;;2.58;2.38;;;7.80;99.90;;;;;;4993251;28;20242;-76
2023/01/11 11:18:25;;;;;;;2.92;2.63;;;7.80;99.90;;;;;;4993078;28;20211;-76
2023/01/11 11:20:51;;;;;;;3.10;2.80;;;7.80;99.90;;;;;;4993231;28;20176;-76
2023/01/11 11:23:21;;;;;;;2.80;2.53;;;7.90;99.90;;;;;;4993158;28;20176;-76
2023/01/11 11:26:00;;;;;;;3.10;2.15;;;7.90;99.90;;;;;;4994292;28;20173;-76
2023/01/11 11:28:29;;;;;;;1.90;1.80;;;8.00;99.90;;;;;;4992939;28;20196;-76
2023/01/11 11:31:01;;;;;;;3.33;1.88;;;8.00;99.90;;;;;;4994312;28;20173;-76
2023/01/11 11:33:34;;;;;;;2.20;2.00;;;8.00;99.90;;;;;;4993048;28;20620;-76
2023/01/11 11:36:06;;;;;;;2.17;2.00;;;8.00;99.90;;;;;;4992984;28;20195;-76
2023/01/11 11:38:34;;;;;;;2.20;2.00;;;8.00;99.90;;;;;;4993035;28;20196;-76
2023/01/11 11:41:02;;;;;;;2.00;1.90;;;8.10;99.90;;;;;;4994417;28;20210;-76
2023/01/11 11:43:29;;;;;;;1.83;1.73;;;8.10;99.90;;;;;;4994127;28;20210;-76
2023/01/11 11:46:01;;;;;;;2.90;2.00;;;8.10;99.90;;;;;;4994318;28;20184;-76
2023/01/11 11:48:30;;;;;;;1.70;1.60;;;8.10;99.90;;;;;;4993127;28;20311;-76
2023/01/11 11:51:02;;;;;;;2.85;1.48;;;8.10;99.90;;;;;;4994888;28;20196;-75
2023/01/11 11:53:52;;;;;;;1.65;1.55;;;8.10;99.90;;;;;;4993733;28;20173;-77
2023/01/11 11:56:26;;;;;;;1.95;1.50;;;8.10;99.90;;;;;;4993277;28;20176;-76
2023/01/11 11:58:54;;;;;;;2.22;2.00;;;8.10;99.90;;;;;;4996842;28;20238;-76
2023/01/11 12:01:28;;;;;;;2.70;2.60;;;8.20;99.90;;;;;;4997307;28;20630;-76
2023/01/11 12:04:18;;;;;;;2.00;1.80;;;8.10;99.90;;;;;;4997379;28;20242;-76
2023/01/11 12:07:04;;;;;;;2.28;2.10;;;8.10;99.90;;;;;;4970042;28;20192;-76
2023/01/11 12:09:38;;;;;;;2.40;2.22;;;8.10;99.90;;;;;;4998212;28;20183;-76
2023/01/11 12:12:05;;;;;;;1.70;1.60;;;8.20;99.90;;;;;;4996703;28;20179;-76
2023/01/11 12:14:34;;;;;;;1.60;1.50;;;8.20;99.90;;;;;;4998740;28;20177;-76
2023/01/11 12:17:14;;;;;;;2.15;1.90;;;8.20;99.90;;;;;;4998748;28;20200;-77
2023/01/11 12:19:46;;;;;;;2.20;2.00;;;8.20;99.90;;;;;;4998816;28;20234;-77
2023/01/11 12:22:20;;;;;;;2.30;2.08;;;8.30;99.90;;;;;;4997875;28;20168;-77
2023/01/11 12:25:00;;;;;;;12.38;9.93;;;8.30;99.90;;;;;;4997421;28;20203;-77
2023/01/11 12:27:55;;;;;;;16.10;12.63;;;8.40;99.90;;;;;;4997716;28;20234;-77
2023/01/11 12:30:33;;;;;;;25.23;18.58;;;8.40;99.90;;;;;;4975291;28;20278;-77
2023/01/11 12:33:23;;;;;;;22.45;16.10;;;8.50;99.90;;;;;;4998929;28;20166;-77
2023/01/11 12:35:54;;;;;;;9.45;7.43;;;8.50;99.90;;;;;;4998188;28;20227;-77
2023/01/11 12:38:25;;;;;;;6.30;5.70;;;8.50;99.90;;;;;;4998356;28;20291;-77
2023/01/11 12:41:04;;;;;;;6.20;4.95;;;8.50;99.90;;;;;;4998459;28;20180;-77
2023/01/11 12:43:35;;;;;;;2.50;2.30;;;8.50;99.90;;;;;;4998295;28;20227;-77
2023/01/11 12:46:13;;;;;;;1.98;1.88;;;8.50;99.90;;;;;;4997183;28;20207;-77
2023/01/11 12:48:58;;;;;;;2.40;2.20;;;8.60;99.90;;;;;;4997472;28;20192;-77
2023/01/11 12:51:39;;;;;;;2.30;2.10;;;8.50;99.90;;;;;;4997318;28;20242;-77
2023/01/11 12:54:35;;;;;;;2.10;2.00;;;8.50;99.90;;;;;;4997745;28;20254;-77
2023/01/11 12:57:28;;;;;;;1.98;1.88;;;8.60;99.90;;;;;;4997951;28;20561;-77
2023/01/11 13:00:18;;;;;;;1.95;1.85;;;8.60;99.90;;;;;;4997304;28;20274;-77
2023/01/11 13:03:15;;;;;;;2.20;2.00;;;8.60;99.90;;;;;;4996921;28;20253;-77
2023/01/11 13:06:08;;;;;;;1.65;1.55;;;8.60;99.90;;;;;;4996734;28;20239;-77
2023/01/11 13:08:58;;;;;;;1.35;1.25;;;8.60;99.90;;;;;;4995833;28;20202;-77
2023/01/11 13:11:48;;;;;;;1.45;1.20;;;8.60;99.90;;;;;;4996500;28;20173;-77
2023/01/11 13:14:47;;;;;;;1.10;1.10;;;8.70;99.90;;;;;;4998325;28;20161;-77
2023/01/11 13:17:32;;;;;;;180.98;74.18;;;8.70;99.90;;;;;;4985594;28;20215;-77
2023/01/11 13:20:27;;;;;;;79.50;39.40;;;8.70;99.90;;;;;;4996320;28;20302;-77
2023/01/11 13:23:00;;;;;;;14.00;8.15;;;8.70;99.90;;;;;;4997747;28;20168;-77
2023/01/11 13:25:32;;;;;;;4.93;3.90;;;8.70;99.90;;;;;;4996621;28;20176;-77
2023/01/11 13:28:02;;;;;;;5.75;3.75;;;8.70;99.90;;;;;;4996209;28;20200;-77
2023/01/11 13:30:30;;;;;;;2.70;2.10;;;8.70;99.90;;;;;;4997549;28;20187;-76
2023/01/11 13:33:03;;;;;;;2.85;2.33;;;8.70;99.90;;;;;;4996661;28;20176;-77
2023/01/11 13:35:44;;;;;;;8.77;6.75;;;8.70;99.90;;;;;;4996030;28;20204;-78
2023/01/11 13:38:30;;;;;;;6.13;4.47;;;8.70;99.90;;;;;;4995609;28;20228;-78
2023/01/11 13:41:06;;;;;;;23.98;20.38;;;8.60;99.90;;;;;;4994996;28;20180;-77
2023/01/11 13:43:41;;;;;;;35.15;24.23;;;8.60;99.90;;;;;;4995033;28;20176;-77
2023/01/11 13:46:24;;;;;;;7.60;5.93;;;8.60;99.90;;;;;;4996275;28;20160;-77
2023/01/11 13:52:36;;;;;;;2.78;2.60;;;8.70;99.90;;;;;;4996386;28;20253;-77